sensor_id;sensor_type;location;lat;lon;timestamp;pressure;altitude;pressure_sealevel;temperature;humidity
10618;BME280;5356;43.526;26.534;2022-10-17T00:00:18;100603.78;;;7.63;85.29
10618;BME280;5356;43.526;26.534;2022-10-17T00:02:43;100607.09;;;7.57;85.95
10618;BME280;5356;43.526;26.534;2022-10-17T00:05:08;100612.06;;;7.52;86.26
10618;BME280;5356;43.526;26.534;2022-10-17T00:07:36;100612.34;;;7.32;86.94
10618;BME280;5356;43.526;26.534;2022-10-17T00:10:02;100608.06;;;7.31;86.63
10618;BME280;5356;43.526;26.534;2022-10-17T00:12:28;100614.19;;;7.32;86.69
10618;BME280;5356;43.526;26.534;2022-10-17T00:14:53;100616.34;;;7.36;87.10
10618;BME280;5356;43.526;26.534;2022-10-17T00:17:19;100612.84;;;7.36;87.03
10618;BME280;5356;43.526;26.534;2022-10-17T00:19:44;100611.38;;;7.33;87.50
10618;BME280;5356;43.526;26.534;2022-10-17T00:22:10;100614.31;;;7.30;87.32
10618;BME280;5356;43.526;26.534;2022-10-17T00:24:36;100609.69;;;7.24;87.40
10618;BME280;5356;43.526;26.534;2022-10-17T00:27:02;100611.50;;;7.15;87.49
10618;BME280;5356;43.526;26.534;2022-10-17T00:29:27;100604.03;;;7.11;86.86
10618;BME280;5356;43.526;26.534;2022-10-17T00:31:54;100601.38;;;7.03;87.58
10618;BME280;5356;43.526;26.534;2022-10-17T00:34:20;100601.50;;;7.01;87.61
10618;BME280;5356;43.526;26.534;2022-10-17T00:36:45;100604.00;;;6.94;87.94
10618;BME280;5356;43.526;26.534;2022-10-17T00:39:11;100602.03;;;6.96;88.04
10618;BME280;5356;43.526;26.534;2022-10-17T00:41:36;100605.00;;;7.02;87.85
10618;BME280;5356;43.526;26.534;2022-10-17T00:44:05;100604.78;;;6.87;88.30
10618;BME280;5356;43.526;26.534;2022-10-17T00:46:37;100600.00;;;6.90;87.95
10618;BME280;5356;43.526;26.534;2022-10-17T00:49:07;100598.63;;;6.78;87.96
10618;BME280;5356;43.526;26.534;2022-10-17T00:51:37;100599.28;;;6.72;88.09
10618;BME280;5356;43.526;26.534;2022-10-17T00:54:05;100599.59;;;6.69;87.78
10618;BME280;5356;43.526;26.534;2022-10-17T00:56:32;100606.34;;;6.63;88.69
10618;BME280;5356;43.526;26.534;2022-10-17T00:58:58;100612.78;;;6.61;88.96
10618;BME280;5356;43.526;26.534;2022-10-17T01:01:23;100609.66;;;6.57;88.48
10618;BME280;5356;43.526;26.534;2022-10-17T01:03:49;100614.75;;;6.59;89.21
10618;BME280;5356;43.526;26.534;2022-10-17T01:06:15;100618.91;;;6.61;88.59
10618;BME280;5356;43.526;26.534;2022-10-17T01:08:40;100620.56;;;6.62;88.17
10618;BME280;5356;43.526;26.534;2022-10-17T01:11:25;100613.13;;;6.58;88.63
10618;BME280;5356;43.526;26.534;2022-10-17T01:16:40;100610.38;;;6.41;88.83
10618;BME280;5356;43.526;26.534;2022-10-17T01:19:25;100620.28;;;6.39;89.33
10618;BME280;5356;43.526;26.534;2022-10-17T01:22:15;100613.03;;;6.41;89.45
10618;BME280;5356;43.526;26.534;2022-10-17T01:24:50;100611.56;;;6.47;90.25
10618;BME280;5356;43.526;26.534;2022-10-17T01:32:41;100613.72;;;6.43;89.87
10618;BME280;5356;43.526;26.534;2022-10-17T01:38:11;100619.34;;;6.22;90.28
10618;BME280;5356;43.526;26.534;2022-10-17T01:41:00;100623.19;;;6.28;91.05
10618;BME280;5356;43.526;26.534;2022-10-17T01:43:35;100625.53;;;6.31;90.91
10618;BME280;5356;43.526;26.534;2022-10-17T01:46:11;100623.88;;;6.30;90.77
10618;BME280;5356;43.526;26.534;2022-10-17T01:48:40;100623.25;;;6.36;91.02
10618;BME280;5356;43.526;26.534;2022-10-17T01:51:35;100626.13;;;6.43;91.03
10618;BME280;5356;43.526;26.534;2022-10-17T01:54:14;100629.72;;;6.42;90.80
10618;BME280;5356;43.526;26.534;2022-10-17T01:56:43;100624.63;;;6.40;90.28
10618;BME280;5356;43.526;26.534;2022-10-17T01:59:16;100623.63;;;6.41;90.59
10618;BME280;5356;43.526;26.534;2022-10-17T02:01:47;100630.16;;;6.29;91.08
10618;BME280;5356;43.526;26.534;2022-10-17T02:04:14;100632.25;;;6.17;91.14
10618;BME280;5356;43.526;26.534;2022-10-17T02:06:40;100631.94;;;6.02;91.89
10618;BME280;5356;43.526;26.534;2022-10-17T02:09:22;100628.75;;;6.17;91.90
10618;BME280;5356;43.526;26.534;2022-10-17T02:20:00;100634.97;;;6.34;92.44
10618;BME280;5356;43.526;26.534;2022-10-17T02:22:46;100635.78;;;6.26;92.22
10618;BME280;5356;43.526;26.534;2022-10-17T02:33:21;100654.75;;;6.21;90.21
10618;BME280;5356;43.526;26.534;2022-10-17T02:35:52;100647.88;;;6.11;90.33
10618;BME280;5356;43.526;26.534;2022-10-17T02:38:19;100652.66;;;6.07;90.07
10618;BME280;5356;43.526;26.534;2022-10-17T02:40:47;100663.56;;;6.04;90.23
10618;BME280;5356;43.526;26.534;2022-10-17T02:43:14;100651.91;;;5.97;91.08
10618;BME280;5356;43.526;26.534;2022-10-17T02:45:40;100657.88;;;5.99;91.11
10618;BME280;5356;43.526;26.534;2022-10-17T02:48:11;100663.19;;;5.99;90.86
10618;BME280;5356;43.526;26.534;2022-10-17T02:51:01;100669.28;;;5.99;90.65
10618;BME280;5356;43.526;26.534;2022-10-17T02:53:54;100671.28;;;5.97;90.05
10618;BME280;5356;43.526;26.534;2022-10-17T02:56:23;100670.97;;;6.00;89.95
10618;BME280;5356;43.526;26.534;2022-10-17T02:58:53;100667.66;;;5.98;90.21
10618;BME280;5356;43.526;26.534;2022-10-17T03:01:20;100673.75;;;5.99;90.26
10618;BME280;5356;43.526;26.534;2022-10-17T03:03:46;100670.28;;;5.80;91.29
10618;BME280;5356;43.526;26.534;2022-10-17T03:06:12;100674.78;;;5.88;91.86
10618;BME280;5356;43.526;26.534;2022-10-17T03:08:37;100675.34;;;5.92;91.08
10618;BME280;5356;43.526;26.534;2022-10-17T03:11:03;100678.94;;;5.91;91.75
10618;BME280;5356;43.526;26.534;2022-10-17T03:13:29;100671.50;;;5.86;91.89
10618;BME280;5356;43.526;26.534;2022-10-17T03:15:55;100682.16;;;5.94;92.58
10618;BME280;5356;43.526;26.534;2022-10-17T03:18:21;100677.13;;;5.91;91.99
10618;BME280;5356;43.526;26.534;2022-10-17T03:20:47;100674.22;;;5.94;92.22
10618;BME280;5356;43.526;26.534;2022-10-17T03:23:12;100685.22;;;5.90;92.69
10618;BME280;5356;43.526;26.534;2022-10-17T03:25:38;100684.53;;;5.88;93.94
10618;BME280;5356;43.526;26.534;2022-10-17T03:28:04;100685.69;;;5.85;93.64
10618;BME280;5356;43.526;26.534;2022-10-17T03:30:30;100683.03;;;5.67;94.71
10618;BME280;5356;43.526;26.534;2022-10-17T03:32:57;100682.78;;;5.43;94.88
10618;BME280;5356;43.526;26.534;2022-10-17T03:35:23;100683.09;;;5.57;94.66
10618;BME280;5356;43.526;26.534;2022-10-17T03:37:48;100690.44;;;5.63;94.14
10618;BME280;5356;43.526;26.534;2022-10-17T03:40:14;100695.56;;;5.65;93.93
10618;BME280;5356;43.526;26.534;2022-10-17T03:42:39;100688.78;;;5.62;94.86
10618;BME280;5356;43.526;26.534;2022-10-17T03:45:05;100685.38;;;5.70;94.53
10618;BME280;5356;43.526;26.534;2022-10-17T03:47:30;100698.50;;;5.80;93.83
10618;BME280;5356;43.526;26.534;2022-10-17T03:49:56;100702.00;;;5.80;93.57
10618;BME280;5356;43.526;26.534;2022-10-17T03:52:21;100703.28;;;5.76;93.51
10618;BME280;5356;43.526;26.534;2022-10-17T03:54:48;100698.31;;;5.73;93.96
10618;BME280;5356;43.526;26.534;2022-10-17T03:57:14;100706.97;;;5.66;93.28
10618;BME280;5356;43.526;26.534;2022-10-17T03:59:40;100708.34;;;5.70;94.42
10618;BME280;5356;43.526;26.534;2022-10-17T04:02:05;100696.34;;;5.75;93.94
10618;BME280;5356;43.526;26.534;2022-10-17T04:04:30;100703.16;;;5.78;93.76
10618;BME280;5356;43.526;26.534;2022-10-17T04:06:56;100699.81;;;5.76;93.31
10618;BME280;5356;43.526;26.534;2022-10-17T04:09:21;100699.13;;;5.74;93.55
10618;BME280;5356;43.526;26.534;2022-10-17T04:11:47;100701.09;;;5.72;93.28
10618;BME280;5356;43.526;26.534;2022-10-17T04:14:12;100703.06;;;5.70;93.27
10618;BME280;5356;43.526;26.534;2022-10-17T04:16:38;100702.75;;;5.73;92.88
10618;BME280;5356;43.526;26.534;2022-10-17T04:19:04;100702.47;;;5.76;92.70
10618;BME280;5356;43.526;26.534;2022-10-17T04:21:29;100705.41;;;5.73;93.08
10618;BME280;5356;43.526;26.534;2022-10-17T04:23:59;100709.63;;;5.66;93.95
10618;BME280;5356;43.526;26.534;2022-10-17T04:26:25;100714.47;;;5.70;95.00
10618;BME280;5356;43.526;26.534;2022-10-17T04:28:51;100717.81;;;5.72;94.32
10618;BME280;5356;43.526;26.534;2022-10-17T04:31:17;100719.88;;;5.69;95.25
10618;BME280;5356;43.526;26.534;2022-10-17T04:33:48;100719.31;;;5.75;94.01
10618;BME280;5356;43.526;26.534;2022-10-17T04:36:16;100729.19;;;5.73;93.50
10618;BME280;5356;43.526;26.534;2022-10-17T04:38:42;100722.09;;;5.73;93.65
10618;BME280;5356;43.526;26.534;2022-10-17T04:41:11;100725.25;;;5.77;93.50
10618;BME280;5356;43.526;26.534;2022-10-17T04:43:38;100728.06;;;5.75;92.99
10618;BME280;5356;43.526;26.534;2022-10-17T04:46:06;100736.97;;;5.74;93.10
10618;BME280;5356;43.526;26.534;2022-10-17T04:48:32;100741.22;;;5.67;93.02
10618;BME280;5356;43.526;26.534;2022-10-17T04:51:02;100738.69;;;5.66;92.42
10618;BME280;5356;43.526;26.534;2022-10-17T04:53:29;100755.38;;;5.66;92.23
10618;BME280;5356;43.526;26.534;2022-10-17T04:55:55;100749.66;;;5.71;92.49
10618;BME280;5356;43.526;26.534;2022-10-17T04:58:20;100754.13;;;5.70;92.81
10618;BME280;5356;43.526;26.534;2022-10-17T05:00:46;100749.53;;;5.72;92.53
10618;BME280;5356;43.526;26.534;2022-10-17T05:03:12;100755.13;;;5.69;92.53
10618;BME280;5356;43.526;26.534;2022-10-17T05:05:38;100759.13;;;5.73;92.93
10618;BME280;5356;43.526;26.534;2022-10-17T05:08:05;100763.72;;;5.71;92.29
10618;BME280;5356;43.526;26.534;2022-10-17T05:10:35;100760.25;;;5.71;92.49
10618;BME280;5356;43.526;26.534;2022-10-17T05:13:01;100766.91;;;5.75;92.60
10618;BME280;5356;43.526;26.534;2022-10-17T05:15:27;100766.31;;;5.81;92.83
10618;BME280;5356;43.526;26.534;2022-10-17T05:17:56;100768.19;;;5.89;92.95
10618;BME280;5356;43.526;26.534;2022-10-17T05:20:22;100771.63;;;5.99;93.22
10618;BME280;5356;43.526;26.534;2022-10-17T05:22:48;100773.84;;;6.03;93.13
10618;BME280;5356;43.526;26.534;2022-10-17T05:25:13;100782.13;;;6.08;92.78
10618;BME280;5356;43.526;26.534;2022-10-17T05:27:39;100781.84;;;6.12;92.46
10618;BME280;5356;43.526;26.534;2022-10-17T05:30:05;100784.84;;;6.17;92.27
10618;BME280;5356;43.526;26.534;2022-10-17T05:32:31;100784.56;;;6.20;92.20
10618;BME280;5356;43.526;26.534;2022-10-17T05:34:56;100785.75;;;6.25;92.19
10618;BME280;5356;43.526;26.534;2022-10-17T05:37:22;100789.78;;;6.29;92.05
10618;BME280;5356;43.526;26.534;2022-10-17T05:39:47;100795.28;;;6.36;91.86
10618;BME280;5356;43.526;26.534;2022-10-17T05:42:13;100792.88;;;6.43;92.26
10618;BME280;5356;43.526;26.534;2022-10-17T05:44:38;100791.13;;;6.51;92.32
10618;BME280;5356;43.526;26.534;2022-10-17T05:47:06;100793.69;;;6.61;92.21
10618;BME280;5356;43.526;26.534;2022-10-17T05:49:31;100794.72;;;6.68;92.51
10618;BME280;5356;43.526;26.534;2022-10-17T05:51:57;100803.41;;;6.79;92.51
10618;BME280;5356;43.526;26.534;2022-10-17T05:54:22;100805.78;;;6.90;92.63
10618;BME280;5356;43.526;26.534;2022-10-17T05:56:52;100805.53;;;7.01;92.74
10618;BME280;5356;43.526;26.534;2022-10-17T05:59:17;100816.03;;;7.11;92.64
10618;BME280;5356;43.526;26.534;2022-10-17T06:01:43;100806.47;;;7.18;93.13
10618;BME280;5356;43.526;26.534;2022-10-17T06:04:09;100808.66;;;7.23;92.79
10618;BME280;5356;43.526;26.534;2022-10-17T06:06:38;100801.41;;;7.33;93.29
10618;BME280;5356;43.526;26.534;2022-10-17T06:09:04;100801.97;;;7.45;93.18
10618;BME280;5356;43.526;26.534;2022-10-17T06:11:29;100807.31;;;7.61;93.19
10618;BME280;5356;43.526;26.534;2022-10-17T06:13:55;100814.66;;;7.75;92.72
10618;BME280;5356;43.526;26.534;2022-10-17T06:16:20;100812.84;;;7.84;92.90
10618;BME280;5356;43.526;26.534;2022-10-17T06:18:46;100809.28;;;8.01;92.78
10618;BME280;5356;43.526;26.534;2022-10-17T06:21:14;100810.78;;;8.20;92.49
10618;BME280;5356;43.526;26.534;2022-10-17T06:23:40;100808.16;;;8.37;92.03
10618;BME280;5356;43.526;26.534;2022-10-17T06:26:05;100816.50;;;8.50;91.83
10618;BME280;5356;43.526;26.534;2022-10-17T06:28:32;100820.47;;;8.62;91.83
10618;BME280;5356;43.526;26.534;2022-10-17T06:30:58;100818.50;;;8.72;91.87
10618;BME280;5356;43.526;26.534;2022-10-17T06:33:23;100816.81;;;8.88;91.72
10618;BME280;5356;43.526;26.534;2022-10-17T06:35:53;100821.44;;;8.94;91.72
10618;BME280;5356;43.526;26.534;2022-10-17T06:38:19;100822.78;;;9.06;91.90
10618;BME280;5356;43.526;26.534;2022-10-17T06:40:44;100824.75;;;9.12;91.51
10618;BME280;5356;43.526;26.534;2022-10-17T06:43:10;100814.91;;;9.29;91.18
10618;BME280;5356;43.526;26.534;2022-10-17T06:45:37;100823.00;;;9.36;91.35
10618;BME280;5356;43.526;26.534;2022-10-17T06:48:03;100825.13;;;9.57;91.32
10618;BME280;5356;43.526;26.534;2022-10-17T06:50:29;100825.34;;;9.78;90.61
10618;BME280;5356;43.526;26.534;2022-10-17T06:52:54;100832.28;;;9.87;90.58
10618;BME280;5356;43.526;26.534;2022-10-17T06:55:20;100831.47;;;10.10;89.95
10618;BME280;5356;43.526;26.534;2022-10-17T06:57:45;100829.25;;;10.22;89.92
10618;BME280;5356;43.526;26.534;2022-10-17T07:00:11;100832.84;;;10.37;89.21
10618;BME280;5356;43.526;26.534;2022-10-17T07:02:37;100830.78;;;10.47;88.75
10618;BME280;5356;43.526;26.534;2022-10-17T07:05:02;100827.22;;;10.55;88.39
10618;BME280;5356;43.526;26.534;2022-10-17T07:07:31;100826.91;;;10.73;88.17
10618;BME280;5356;43.526;26.534;2022-10-17T07:09:57;100832.72;;;10.91;87.44
10618;BME280;5356;43.526;26.534;2022-10-17T07:12:23;100831.28;;;11.04;87.87
10618;BME280;5356;43.526;26.534;2022-10-17T07:14:49;100835.34;;;11.14;87.07
10618;BME280;5356;43.526;26.534;2022-10-17T07:17:16;100831.41;;;11.25;86.53
10618;BME280;5356;43.526;26.534;2022-10-17T07:19:42;100828.56;;;11.41;85.86
10618;BME280;5356;43.526;26.534;2022-10-17T07:22:09;100836.63;;;11.63;85.53
10618;BME280;5356;43.526;26.534;2022-10-17T07:24:34;100833.31;;;11.76;84.71
10618;BME280;5356;43.526;26.534;2022-10-17T07:27:00;100834.78;;;11.78;84.05
10618;BME280;5356;43.526;26.534;2022-10-17T07:29:25;100836.78;;;11.91;83.93
10618;BME280;5356;43.526;26.534;2022-10-17T07:31:51;100835.22;;;11.97;83.02
10618;BME280;5356;43.526;26.534;2022-10-17T07:34:17;100837.78;;;12.05;81.99
10618;BME280;5356;43.526;26.534;2022-10-17T07:36:42;100840.16;;;12.15;82.15
10618;BME280;5356;43.526;26.534;2022-10-17T07:39:08;100837.34;;;12.23;81.49
10618;BME280;5356;43.526;26.534;2022-10-17T07:41:34;100840.25;;;12.43;81.03
10618;BME280;5356;43.526;26.534;2022-10-17T07:43:59;100828.44;;;12.58;80.86
10618;BME280;5356;43.526;26.534;2022-10-17T07:46:24;100836.94;;;12.90;80.69
10618;BME280;5356;43.526;26.534;2022-10-17T07:48:50;100828.44;;;13.08;78.85
10618;BME280;5356;43.526;26.534;2022-10-17T07:51:15;100827.97;;;13.26;78.67
10618;BME280;5356;43.526;26.534;2022-10-17T07:53:42;100827.00;;;13.40;77.76
10618;BME280;5356;43.526;26.534;2022-10-17T07:56:09;100827.34;;;13.65;77.58
10618;BME280;5356;43.526;26.534;2022-10-17T07:58:36;100823.09;;;13.84;75.11
10618;BME280;5356;43.526;26.534;2022-10-17T08:01:03;100820.09;;;14.07;75.39
10618;BME280;5356;43.526;26.534;2022-10-17T08:03:29;100813.94;;;14.33;74.81
10618;BME280;5356;43.526;26.534;2022-10-17T08:06:01;100812.94;;;14.48;73.24
10618;BME280;5356;43.526;26.534;2022-10-17T08:08:28;100806.56;;;14.62;72.77
10618;BME280;5356;43.526;26.534;2022-10-17T08:10:54;100815.25;;;14.84;72.13
10618;BME280;5356;43.526;26.534;2022-10-17T08:13:21;100802.22;;;14.94;70.62
10618;BME280;5356;43.526;26.534;2022-10-17T08:15:47;100806.53;;;15.15;69.95
10618;BME280;5356;43.526;26.534;2022-10-17T08:18:13;100814.38;;;15.23;68.85
10618;BME280;5356;43.526;26.534;2022-10-17T08:20:40;100806.44;;;15.48;68.13
10618;BME280;5356;43.526;26.534;2022-10-17T08:23:06;100816.28;;;15.75;68.17
10618;BME280;5356;43.526;26.534;2022-10-17T08:25:31;100806.47;;;15.93;67.18
10618;BME280;5356;43.526;26.534;2022-10-17T08:31:19;100805.47;;;16.26;61.28
10618;BME280;5356;43.526;26.534;2022-10-17T08:33:46;100804.59;;;16.32;60.27
10618;BME280;5356;43.526;26.534;2022-10-17T08:36:14;100809.22;;;16.50;59.71
10618;BME280;5356;43.526;26.534;2022-10-17T08:38:40;100807.94;;;16.53;58.39
10618;BME280;5356;43.526;26.534;2022-10-17T08:46:15;100801.94;;;16.82;56.58
10618;BME280;5356;43.526;26.534;2022-10-17T08:48:43;100804.75;;;16.94;55.01
10618;BME280;5356;43.526;26.534;2022-10-17T08:51:14;100802.59;;;17.03;55.91
10618;BME280;5356;43.526;26.534;2022-10-17T08:53:54;100802.91;;;17.13;55.21
10618;BME280;5356;43.526;26.534;2022-10-17T08:56:25;100805.31;;;17.21;54.26
10618;BME280;5356;43.526;26.534;2022-10-17T08:58:51;100811.34;;;17.35;54.37
10618;BME280;5356;43.526;26.534;2022-10-17T09:06:38;100820.94;;;17.68;52.53
10618;BME280;5356;43.526;26.534;2022-10-17T09:14:49;100824.16;;;17.95;53.12
10618;BME280;5356;43.526;26.534;2022-10-17T09:20:08;100813.47;;;18.00;52.38
10618;BME280;5356;43.526;26.534;2022-10-17T09:22:50;100812.72;;;18.11;52.26
10618;BME280;5356;43.526;26.534;2022-10-17T09:25:18;100813.66;;;18.17;52.47
10618;BME280;5356;43.526;26.534;2022-10-17T09:27:51;100812.66;;;18.30;52.54
10618;BME280;5356;43.526;26.534;2022-10-17T09:32:47;100805.28;;;18.37;52.87
10618;BME280;5356;43.526;26.534;2022-10-17T09:35:13;100802.50;;;18.44;52.98
10618;BME280;5356;43.526;26.534;2022-10-17T09:37:39;100813.06;;;18.57;53.27
10618;BME280;5356;43.526;26.534;2022-10-17T09:40:12;100812.16;;;18.63;54.05
10618;BME280;5356;43.526;26.534;2022-10-17T09:42:40;100811.91;;;18.65;54.09
10618;BME280;5356;43.526;26.534;2022-10-17T09:45:20;100811.72;;;18.78;53.60
10618;BME280;5356;43.526;26.534;2022-10-17T09:47:59;100808.41;;;18.76;52.30
10618;BME280;5356;43.526;26.534;2022-10-17T09:50:33;100801.03;;;18.83;52.69
10618;BME280;5356;43.526;26.534;2022-10-17T09:53:12;100801.22;;;18.70;52.17
10618;BME280;5356;43.526;26.534;2022-10-17T09:55:42;100798.69;;;18.87;52.34
10618;BME280;5356;43.526;26.534;2022-10-17T09:58:08;100800.44;;;19.04;52.86
10618;BME280;5356;43.526;26.534;2022-10-17T10:00:37;100798.66;;;19.22;52.44
10618;BME280;5356;43.526;26.534;2022-10-17T10:03:18;100793.03;;;19.23;51.76
10618;BME280;5356;43.526;26.534;2022-10-17T10:06:08;100803.47;;;19.32;52.01
10618;BME280;5356;43.526;26.534;2022-10-17T10:11:13;100796.69;;;19.17;52.45
10618;BME280;5356;43.526;26.534;2022-10-17T10:13:46;100795.72;;;19.23;52.79
10618;BME280;5356;43.526;26.534;2022-10-17T10:16:22;100783.13;;;19.41;52.57
10618;BME280;5356;43.526;26.534;2022-10-17T10:18:49;100786.28;;;19.49;52.59
10618;BME280;5356;43.526;26.534;2022-10-17T10:21:17;100782.38;;;19.57;51.44
10618;BME280;5356;43.526;26.534;2022-10-17T10:26:36;100778.28;;;19.55;50.74
10618;BME280;5356;43.526;26.534;2022-10-17T10:29:17;100770.09;;;19.38;50.30
10618;BME280;5356;43.526;26.534;2022-10-17T10:31:45;100769.94;;;19.56;50.39
10618;BME280;5356;43.526;26.534;2022-10-17T10:34:18;100771.06;;;19.72;50.44
10618;BME280;5356;43.526;26.534;2022-10-17T10:41:56;100758.69;;;20.05;50.49
10618;BME280;5356;43.526;26.534;2022-10-17T10:44:24;100753.53;;;20.20;49.99
10618;BME280;5356;43.526;26.534;2022-10-17T10:47:14;100749.09;;;20.14;49.63
10618;BME280;5356;43.526;26.534;2022-10-17T10:49:41;100751.91;;;20.19;50.02
10618;BME280;5356;43.526;26.534;2022-10-17T10:52:11;100752.56;;;20.26;49.28
10618;BME280;5356;43.526;26.534;2022-10-17T10:54:45;100748.81;;;20.27;48.86
10618;BME280;5356;43.526;26.534;2022-10-17T10:57:15;100748.44;;;20.24;48.63
10618;BME280;5356;43.526;26.534;2022-10-17T10:59:55;100751.66;;;20.21;48.21
10618;BME280;5356;43.526;26.534;2022-10-17T11:02:39;100749.66;;;19.99;47.43
10618;BME280;5356;43.526;26.534;2022-10-17T11:05:12;100742.47;;;20.05;47.74
10618;BME280;5356;43.526;26.534;2022-10-17T11:07:53;100746.06;;;20.10;47.64
10618;BME280;5356;43.526;26.534;2022-10-17T11:13:16;100744.50;;;20.14;47.82
10618;BME280;5356;43.526;26.534;2022-10-17T11:16:13;100736.31;;;20.09;47.31
10618;BME280;5356;43.526;26.534;2022-10-17T11:18:58;100734.91;;;20.24;47.48
10618;BME280;5356;43.526;26.534;2022-10-17T11:21:36;100736.91;;;20.28;47.66
10618;BME280;5356;43.526;26.534;2022-10-17T11:26:48;100723.19;;;20.35;47.28
10618;BME280;5356;43.526;26.534;2022-10-17T11:29:14;100724.75;;;20.48;47.36
10618;BME280;5356;43.526;26.534;2022-10-17T11:31:50;100722.97;;;20.36;46.68
10618;BME280;5356;43.526;26.534;2022-10-17T11:34:24;100728.94;;;20.38;46.78
10618;BME280;5356;43.526;26.534;2022-10-17T11:36:55;100722.88;;;20.48;46.31
10618;BME280;5356;43.526;26.534;2022-10-17T11:39:30;100718.69;;;20.40;46.18
10618;BME280;5356;43.526;26.534;2022-10-17T11:42:07;100718.63;;;20.35;46.20
10618;BME280;5356;43.526;26.534;2022-10-17T11:44:38;100707.94;;;20.29;46.23
10618;BME280;5356;43.526;26.534;2022-10-17T11:49:49;100711.88;;;20.55;46.29
10618;BME280;5356;43.526;26.534;2022-10-17T11:52:27;100704.69;;;20.82;46.12
10618;BME280;5356;43.526;26.534;2022-10-17T11:54:58;100706.75;;;20.92;46.16
10618;BME280;5356;43.526;26.534;2022-10-17T12:00:19;100706.34;;;20.83;45.71
10618;BME280;5356;43.526;26.534;2022-10-17T12:05:26;100695.44;;;20.78;45.46
10618;BME280;5356;43.526;26.534;2022-10-17T12:08:03;100696.28;;;21.01;45.76
10618;BME280;5356;43.526;26.534;2022-10-17T12:10:42;100699.44;;;20.93;45.09
10618;BME280;5356;43.526;26.534;2022-10-17T12:16:43;100702.38;;;20.91;44.69
10618;BME280;5356;43.526;26.534;2022-10-17T12:18:48;100700.25;;;20.93;44.46
10618;BME280;5356;43.526;26.534;2022-10-17T12:21:15;100695.03;;;20.87;44.77
10618;BME280;5356;43.526;26.534;2022-10-17T12:23:51;100695.03;;;20.87;44.43
10618;BME280;5356;43.526;26.534;2022-10-17T12:26:25;100693.94;;;20.88;44.65
10618;BME280;5356;43.526;26.534;2022-10-17T12:28:51;100693.75;;;20.94;44.04
10618;BME280;5356;43.526;26.534;2022-10-17T12:33:49;100697.69;;;21.03;44.49
10618;BME280;5356;43.526;26.534;2022-10-17T12:38:42;100694.19;;;21.08;44.06
10618;BME280;5356;43.526;26.534;2022-10-17T12:41:08;100699.75;;;21.18;44.20
10618;BME280;5356;43.526;26.534;2022-10-17T12:43:53;100696.09;;;21.29;43.71
10618;BME280;5356;43.526;26.534;2022-10-17T12:54:39;100698.66;;;21.19;43.68
10618;BME280;5356;43.526;26.534;2022-10-17T12:59:55;100700.69;;;21.07;43.65
10618;BME280;5356;43.526;26.534;2022-10-17T13:02:24;100699.25;;;21.21;43.59
10618;BME280;5356;43.526;26.534;2022-10-17T13:05:02;100702.63;;;21.34;43.45
10618;BME280;5356;43.526;26.534;2022-10-17T13:07:29;100694.00;;;21.37;43.33
10618;BME280;5356;43.526;26.534;2022-10-17T13:09:54;100705.28;;;21.28;43.09
10618;BME280;5356;43.526;26.534;2022-10-17T13:12:24;100705.91;;;21.36;43.30
10618;BME280;5356;43.526;26.534;2022-10-17T13:14:52;100691.88;;;21.39;42.92
10618;BME280;5356;43.526;26.534;2022-10-17T13:17:28;100696.28;;;21.45;42.89
10618;BME280;5356;43.526;26.534;2022-10-17T13:19:55;100687.69;;;21.53;43.10
10618;BME280;5356;43.526;26.534;2022-10-17T13:22:23;100691.28;;;21.59;42.58
10618;BME280;5356;43.526;26.534;2022-10-17T13:24:50;100698.75;;;21.46;42.57
10618;BME280;5356;43.526;26.534;2022-10-17T13:27:26;100683.00;;;21.48;42.66
10618;BME280;5356;43.526;26.534;2022-10-17T13:29:53;100695.66;;;21.38;42.40
10618;BME280;5356;43.526;26.534;2022-10-17T13:32:21;100695.50;;;21.27;42.54
10618;BME280;5356;43.526;26.534;2022-10-17T13:35:06;100696.84;;;21.25;42.71
10618;BME280;5356;43.526;26.534;2022-10-17T13:37:33;100703.56;;;21.22;42.93
10618;BME280;5356;43.526;26.534;2022-10-17T13:39:59;100702.53;;;21.23;42.87
10618;BME280;5356;43.526;26.534;2022-10-17T13:42:28;100700.13;;;21.27;42.36
10618;BME280;5356;43.526;26.534;2022-10-17T13:44:54;100701.66;;;21.18;42.18
10618;BME280;5356;43.526;26.534;2022-10-17T13:47:27;100698.06;;;21.12;42.41
10618;BME280;5356;43.526;26.534;2022-10-17T13:49:54;100707.94;;;21.23;42.38
10618;BME280;5356;43.526;26.534;2022-10-17T13:52:22;100707.22;;;21.33;42.42
10618;BME280;5356;43.526;26.534;2022-10-17T13:54:50;100704.09;;;21.41;42.43
10618;BME280;5356;43.526;26.534;2022-10-17T13:57:20;100709.22;;;21.38;42.22
10618;BME280;5356;43.526;26.534;2022-10-17T13:59:49;100705.72;;;21.42;42.41
10618;BME280;5356;43.526;26.534;2022-10-17T14:02:23;100705.53;;;21.27;42.17
10618;BME280;5356;43.526;26.534;2022-10-17T14:05:12;100705.41;;;21.17;42.20
10618;BME280;5356;43.526;26.534;2022-10-17T14:07:53;100706.22;;;21.17;42.20
10618;BME280;5356;43.526;26.534;2022-10-17T14:12:56;100713.66;;;21.05;42.02
10618;BME280;5356;43.526;26.534;2022-10-17T14:15:25;100711.31;;;20.92;42.18
10618;BME280;5356;43.526;26.534;2022-10-17T14:17:57;100715.41;;;20.94;42.30
10618;BME280;5356;43.526;26.534;2022-10-17T14:20:23;100716.00;;;20.96;42.26
10618;BME280;5356;43.526;26.534;2022-10-17T14:22:49;100727.19;;;20.83;42.27
10618;BME280;5356;43.526;26.534;2022-10-17T14:25:37;100723.47;;;20.67;42.00
10618;BME280;5356;43.526;26.534;2022-10-17T14:30:46;100724.91;;;20.58;42.37
10618;BME280;5356;43.526;26.534;2022-10-17T14:33:23;100723.19;;;20.52;42.20
10618;BME280;5356;43.526;26.534;2022-10-17T14:35:50;100726.78;;;20.40;42.06
10618;BME280;5356;43.526;26.534;2022-10-17T14:38:16;100718.19;;;20.27;42.24
10618;BME280;5356;43.526;26.534;2022-10-17T14:41:05;100718.53;;;20.30;42.59
10618;BME280;5356;43.526;26.534;2022-10-17T14:43:33;100729.00;;;20.27;42.79
10618;BME280;5356;43.526;26.534;2022-10-17T14:45:59;100734.44;;;20.10;42.47